sensor_id;sensor_type;location;lat;lon;timestamp;temperature;humidity
43673;DHT22;41723;49.326;8.430;2023-03-03T00:02:01;5.10;99.90
43673;DHT22;41723;49.326;8.430;2023-03-03T00:04:27;5.20;99.90
43673;DHT22;41723;49.326;8.430;2023-03-03T00:06:52;5.30;99.90
43673;DHT22;41723;49.326;8.430;2023-03-03T00:09:18;5.20;99.90
43673;DHT22;41723;49.326;8.430;2023-03-03T00:11:44;5.00;99.90
43673;DHT22;41723;49.326;8.430;2023-03-03T00:17:11;5.10;99.90
43673;DHT22;41723;49.326;8.430;2023-03-03T00:19:39;5.00;99.90
43673;DHT22;41723;49.326;8.430;2023-03-03T00:22:19;4.80;99.90
43673;DHT22;41723;49.326;8.430;2023-03-03T00:24:47;4.90;99.90
43673;DHT22;41723;49.326;8.430;2023-03-03T00:27:30;4.90;99.90
43673;DHT22;41723;49.326;8.430;2023-03-03T00:29:58;4.60;99.90
43673;DHT22;41723;49.326;8.430;2023-03-03T00:34:51;4.80;99.90
43673;DHT22;41723;49.326;8.430;2023-03-03T00:39:49;4.70;99.90
43673;DHT22;41723;49.326;8.430;2023-03-03T00:42:15;4.60;99.90
43673;DHT22;41723;49.326;8.430;2023-03-03T00:49:41;4.70;99.70
43673;DHT22;41723;49.326;8.430;2023-03-03T00:52:15;4.40;99.90
43673;DHT22;41723;49.326;8.430;2023-03-03T00:54:41;4.60;99.90
43673;DHT22;41723;49.326;8.430;2023-03-03T00:57:07;4.60;99.60
43673;DHT22;41723;49.326;8.430;2023-03-03T00:59:33;4.50;98.70
43673;DHT22;41723;49.326;8.430;2023-03-03T01:01:59;4.30;98.90
43673;DHT22;41723;49.326;8.430;2023-03-03T01:04:26;4.50;98.90
43673;DHT22;41723;49.326;8.430;2023-03-03T01:06:52;4.50;98.70
43673;DHT22;41723;49.326;8.430;2023-03-03T01:09:17;4.60;98.80
43673;DHT22;41723;49.326;8.430;2023-03-03T01:11:43;4.50;98.30
43673;DHT22;41723;49.326;8.430;2023-03-03T01:14:08;4.20;99.00
43673;DHT22;41723;49.326;8.430;2023-03-03T01:16:34;4.40;99.10
43673;DHT22;41723;49.326;8.430;2023-03-03T01:19:00;4.50;99.00
43673;DHT22;41723;49.326;8.430;2023-03-03T01:21:28;4.40;98.90
43673;DHT22;41723;49.326;8.430;2023-03-03T01:23:54;4.20;99.20
43673;DHT22;41723;49.326;8.430;2023-03-03T01:26:19;4.30;99.20
43673;DHT22;41723;49.326;8.430;2023-03-03T01:28:45;4.40;99.20
43673;DHT22;41723;49.326;8.430;2023-03-03T01:31:10;4.30;97.80
43673;DHT22;41723;49.326;8.430;2023-03-03T01:33:37;4.10;98.60
43673;DHT22;41723;49.326;8.430;2023-03-03T01:36:02;4.20;98.80
43673;DHT22;41723;49.326;8.430;2023-03-03T01:38:28;4.30;98.40
43673;DHT22;41723;49.326;8.430;2023-03-03T01:40:58;4.20;97.10
43673;DHT22;41723;49.326;8.430;2023-03-03T01:43:27;4.10;97.50
43673;DHT22;41723;49.326;8.430;2023-03-03T01:50:49;4.20;97.70
43673;DHT22;41723;49.326;8.430;2023-03-03T01:53:17;4.20;97.10
43673;DHT22;41723;49.326;8.430;2023-03-03T01:55:44;4.00;96.60
43673;DHT22;41723;49.326;8.430;2023-03-03T01:58:12;4.00;97.40
43673;DHT22;41723;49.326;8.430;2023-03-03T02:00:40;3.90;97.40
43673;DHT22;41723;49.326;8.430;2023-03-03T02:03:06;4.10;97.40
43673;DHT22;41723;49.326;8.430;2023-03-03T02:05:32;4.20;96.20
43673;DHT22;41723;49.326;8.430;2023-03-03T02:07:58;4.30;96.40
43673;DHT22;41723;49.326;8.430;2023-03-03T02:10:24;4.30;95.60
43673;DHT22;41723;49.326;8.430;2023-03-03T02:12:53;4.10;95.70
43673;DHT22;41723;49.326;8.430;2023-03-03T02:15:25;4.20;96.40
43673;DHT22;41723;49.326;8.430;2023-03-03T02:21:26;3.90;96.10
43673;DHT22;41723;49.326;8.430;2023-03-03T02:26:20;3.90;96.00
43673;DHT22;41723;49.326;8.430;2023-03-03T02:28:48;4.00;95.30
43673;DHT22;41723;49.326;8.430;2023-03-03T02:31:16;4.00;95.70
43673;DHT22;41723;49.326;8.430;2023-03-03T02:33:44;4.00;95.80
43673;DHT22;41723;49.326;8.430;2023-03-03T02:36:13;3.90;95.50
43673;DHT22;41723;49.326;8.430;2023-03-03T02:39:02;3.70;96.10
43673;DHT22;41723;49.326;8.430;2023-03-03T02:41:32;3.90;95.80
43673;DHT22;41723;49.326;8.430;2023-03-03T02:46:28;3.90;95.80
43673;DHT22;41723;49.326;8.430;2023-03-03T02:48:56;4.10;96.00
43673;DHT22;41723;49.326;8.430;2023-03-03T02:51:22;4.10;95.50
43673;DHT22;41723;49.326;8.430;2023-03-03T02:53:47;4.00;95.40
43673;DHT22;41723;49.326;8.430;2023-03-03T02:56:13;4.00;95.90
43673;DHT22;41723;49.326;8.430;2023-03-03T02:58:39;4.00;96.00
43673;DHT22;41723;49.326;8.430;2023-03-03T03:01:06;3.80;95.60
43673;DHT22;41723;49.326;8.430;2023-03-03T03:03:31;3.50;96.20
43673;DHT22;41723;49.326;8.430;2023-03-03T03:06:00;3.40;96.60
43673;DHT22;41723;49.326;8.430;2023-03-03T03:08:26;3.30;97.00
43673;DHT22;41723;49.326;8.430;2023-03-03T03:10:52;3.40;97.00
43673;DHT22;41723;49.326;8.430;2023-03-03T03:13:18;3.60;96.80
43673;DHT22;41723;49.326;8.430;2023-03-03T03:15:46;3.70;96.80
43673;DHT22;41723;49.326;8.430;2023-03-03T03:18:12;3.70;96.70
43673;DHT22;41723;49.326;8.430;2023-03-03T03:20:40;3.80;96.50
43673;DHT22;41723;49.326;8.430;2023-03-03T03:23:07;3.90;96.90
43673;DHT22;41723;49.326;8.430;2023-03-03T03:25:33;4.00;96.50
43673;DHT22;41723;49.326;8.430;2023-03-03T03:27:59;4.00;96.20
43673;DHT22;41723;49.326;8.430;2023-03-03T03:30:25;3.90;96.60
43673;DHT22;41723;49.326;8.430;2023-03-03T03:32:51;3.70;96.60
43673;DHT22;41723;49.326;8.430;2023-03-03T03:35:17;3.50;97.20
43673;DHT22;41723;49.326;8.430;2023-03-03T03:37:43;3.70;97.20
43673;DHT22;41723;49.326;8.430;2023-03-03T03:40:10;3.60;97.00
43673;DHT22;41723;49.326;8.430;2023-03-03T03:42:35;3.50;97.50
43673;DHT22;41723;49.326;8.430;2023-03-03T03:45:03;3.40;97.60
43673;DHT22;41723;49.326;8.430;2023-03-03T03:47:28;3.50;97.90
43673;DHT22;41723;49.326;8.430;2023-03-03T03:49:56;3.60;97.40
43673;DHT22;41723;49.326;8.430;2023-03-03T03:52:21;3.50;97.50
43673;DHT22;41723;49.326;8.430;2023-03-03T03:54:47;3.40;98.00
43673;DHT22;41723;49.326;8.430;2023-03-03T03:57:13;3.30;98.20
43673;DHT22;41723;49.326;8.430;2023-03-03T03:59:39;3.20;98.60
43673;DHT22;41723;49.326;8.430;2023-03-03T04:02:05;3.20;98.80
43673;DHT22;41723;49.326;8.430;2023-03-03T04:04:31;3.20;98.70
43673;DHT22;41723;49.326;8.430;2023-03-03T04:06:57;3.20;98.90
43673;DHT22;41723;49.326;8.430;2023-03-03T04:09:25;3.30;98.60
43673;DHT22;41723;49.326;8.430;2023-03-03T04:11:53;3.20;98.80
43673;DHT22;41723;49.326;8.430;2023-03-03T04:14:19;3.20;98.90
43673;DHT22;41723;49.326;8.430;2023-03-03T04:16:44;3.10;99.30
43673;DHT22;41723;49.326;8.430;2023-03-03T04:19:11;3.10;99.30
43673;DHT22;41723;49.326;8.430;2023-03-03T04:21:39;3.10;99.40
43673;DHT22;41723;49.326;8.430;2023-03-03T04:24:06;2.90;99.60
43673;DHT22;41723;49.326;8.430;2023-03-03T04:26:32;2.90;99.90
43673;DHT22;41723;49.326;8.430;2023-03-03T04:29:00;2.90;99.80
43673;DHT22;41723;49.326;8.430;2023-03-03T04:31:28;2.80;99.90
43673;DHT22;41723;49.326;8.430;2023-03-03T04:33:53;2.80;99.90
43673;DHT22;41723;49.326;8.430;2023-03-03T04:36:20;2.70;99.90
43673;DHT22;41723;49.326;8.430;2023-03-03T04:38:47;2.80;99.90
43673;DHT22;41723;49.326;8.430;2023-03-03T04:41:13;2.90;99.90
43673;DHT22;41723;49.326;8.430;2023-03-03T04:43:40;3.10;99.80
43673;DHT22;41723;49.326;8.430;2023-03-03T04:46:06;3.20;99.70
43673;DHT22;41723;49.326;8.430;2023-03-03T04:48:32;3.30;99.50
43673;DHT22;41723;49.326;8.430;2023-03-03T04:50:58;3.30;99.70
43673;DHT22;41723;49.326;8.430;2023-03-03T04:53:25;3.40;99.90
43673;DHT22;41723;49.326;8.430;2023-03-03T04:55:51;3.50;99.70
43673;DHT22;41723;49.326;8.430;2023-03-03T04:58:17;3.50;99.40
43673;DHT22;41723;49.326;8.430;2023-03-03T05:00:52;3.50;99.60
43673;DHT22;41723;49.326;8.430;2023-03-03T05:03:17;3.20;99.90
43673;DHT22;41723;49.326;8.430;2023-03-03T05:05:44;3.00;99.90
43673;DHT22;41723;49.326;8.430;2023-03-03T05:08:10;2.90;99.90
43673;DHT22;41723;49.326;8.430;2023-03-03T05:10:36;3.10;99.90
43673;DHT22;41723;49.326;8.430;2023-03-03T05:13:01;2.90;99.90
43673;DHT22;41723;49.326;8.430;2023-03-03T05:15:27;2.90;99.90
43673;DHT22;41723;49.326;8.430;2023-03-03T05:17:53;2.70;99.90
43673;DHT22;41723;49.326;8.430;2023-03-03T05:20:21;2.80;99.90
43673;DHT22;41723;49.326;8.430;2023-03-03T05:22:46;2.60;99.90
43673;DHT22;41723;49.326;8.430;2023-03-03T05:25:12;2.60;99.90
43673;DHT22;41723;49.326;8.430;2023-03-03T05:27:38;2.50;99.90
43673;DHT22;41723;49.326;8.430;2023-03-03T05:30:03;2.50;99.90
43673;DHT22;41723;49.326;8.430;2023-03-03T05:32:29;2.50;99.90
43673;DHT22;41723;49.326;8.430;2023-03-03T05:34:55;2.50;99.90
43673;DHT22;41723;49.326;8.430;2023-03-03T05:37:20;2.40;99.90
43673;DHT22;41723;49.326;8.430;2023-03-03T05:39:48;2.50;99.90
43673;DHT22;41723;49.326;8.430;2023-03-03T05:42:14;2.50;99.90
43673;DHT22;41723;49.326;8.430;2023-03-03T05:44:40;2.60;99.90
43673;DHT22;41723;49.326;8.430;2023-03-03T05:47:05;2.80;99.90
43673;DHT22;41723;49.326;8.430;2023-03-03T05:49:34;3.00;99.90
43673;DHT22;41723;49.326;8.430;2023-03-03T05:52:00;3.00;99.90
43673;DHT22;41723;49.326;8.430;2023-03-03T05:54:26;3.00;99.90
43673;DHT22;41723;49.326;8.430;2023-03-03T05:56:51;3.00;99.90
43673;DHT22;41723;49.326;8.430;2023-03-03T05:59:17;2.70;99.90
43673;DHT22;41723;49.326;8.430;2023-03-03T06:01:44;2.70;99.90
43673;DHT22;41723;49.326;8.430;2023-03-03T06:04:15;2.50;99.90
43673;DHT22;41723;49.326;8.430;2023-03-03T06:06:41;2.60;99.90
43673;DHT22;41723;49.326;8.430;2023-03-03T06:09:06;2.40;99.90
43673;DHT22;41723;49.326;8.430;2023-03-03T06:11:32;2.40;99.90
43673;DHT22;41723;49.326;8.430;2023-03-03T06:13:58;2.40;99.90
43673;DHT22;41723;49.326;8.430;2023-03-03T06:16:23;2.50;99.90
43673;DHT22;41723;49.326;8.430;2023-03-03T06:18:49;2.40;99.90
43673;DHT22;41723;49.326;8.430;2023-03-03T06:21:15;2.40;99.90
43673;DHT22;41723;49.326;8.430;2023-03-03T06:23:40;2.40;99.90
43673;DHT22;41723;49.326;8.430;2023-03-03T06:26:06;2.40;99.90
43673;DHT22;41723;49.326;8.430;2023-03-03T06:28:31;2.50;99.90
43673;DHT22;41723;49.326;8.430;2023-03-03T06:30:57;2.50;99.90
43673;DHT22;41723;49.326;8.430;2023-03-03T06:33:23;2.60;99.90
43673;DHT22;41723;49.326;8.430;2023-03-03T06:35:52;2.70;99.90
43673;DHT22;41723;49.326;8.430;2023-03-03T06:38:18;2.80;99.90
43673;DHT22;41723;49.326;8.430;2023-03-03T06:40:45;3.00;99.90
43673;DHT22;41723;49.326;8.430;2023-03-03T06:43:10;3.10;99.90
43673;DHT22;41723;49.326;8.430;2023-03-03T06:45:36;3.20;99.90
43673;DHT22;41723;49.326;8.430;2023-03-03T06:48:02;3.20;99.90
43673;DHT22;41723;49.326;8.430;2023-03-03T06:50:28;3.30;99.90
43673;DHT22;41723;49.326;8.430;2023-03-03T06:53:15;3.30;99.90
43673;DHT22;41723;49.326;8.430;2023-03-03T06:55:39;3.30;99.90
43673;DHT22;41723;49.326;8.430;2023-03-03T06:58:15;2.90;99.90
43673;DHT22;41723;49.326;8.430;2023-03-03T07:00:42;2.90;99.90
43673;DHT22;41723;49.326;8.430;2023-03-03T07:03:11;2.80;99.90
43673;DHT22;41723;49.326;8.430;2023-03-03T07:05:38;2.90;99.90
43673;DHT22;41723;49.326;8.430;2023-03-03T07:08:14;2.90;99.90
43673;DHT22;41723;49.326;8.430;2023-03-03T07:10:41;2.80;99.90
43673;DHT22;41723;49.326;8.430;2023-03-03T07:13:17;2.80;99.90
43673;DHT22;41723;49.326;8.430;2023-03-03T07:15:43;2.80;99.90
43673;DHT22;41723;49.326;8.430;2023-03-03T07:20:50;2.80;99.90
43673;DHT22;41723;49.326;8.430;2023-03-03T07:23:26;2.80;99.90
43673;DHT22;41723;49.326;8.430;2023-03-03T07:25:52;2.80;99.90
43673;DHT22;41723;49.326;8.430;2023-03-03T07:28:22;2.70;99.90
43673;DHT22;41723;49.326;8.430;2023-03-03T07:30:48;2.70;99.90
43673;DHT22;41723;49.326;8.430;2023-03-03T07:33:18;2.70;99.90
43673;DHT22;41723;49.326;8.430;2023-03-03T07:35:44;2.80;99.90
43673;DHT22;41723;49.326;8.430;2023-03-03T07:40:57;2.80;99.90
43673;DHT22;41723;49.326;8.430;2023-03-03T07:45:49;3.00;99.90
43673;DHT22;41723;49.326;8.430;2023-03-03T07:48:17;2.90;99.90
43673;DHT22;41723;49.326;8.430;2023-03-03T07:50:45;2.80;99.90
43673;DHT22;41723;49.326;8.430;2023-03-03T07:55:48;2.90;99.90
43673;DHT22;41723;49.326;8.430;2023-03-03T07:58:20;3.00;99.90
43673;DHT22;41723;49.326;8.430;2023-03-03T08:03:30;3.00;99.90
43673;DHT22;41723;49.326;8.430;2023-03-03T08:06:00;3.20;99.90
43673;DHT22;41723;49.326;8.430;2023-03-03T08:08:32;3.20;99.90
43673;DHT22;41723;49.326;8.430;2023-03-03T08:11:02;3.20;99.90
43673;DHT22;41723;49.326;8.430;2023-03-03T08:13:28;3.30;99.90
43673;DHT22;41723;49.326;8.430;2023-03-03T08:18:28;3.30;99.90
43673;DHT22;41723;49.326;8.430;2023-03-03T08:21:13;3.30;99.90
43673;DHT22;41723;49.326;8.430;2023-03-03T08:23:39;3.30;99.90
43673;DHT22;41723;49.326;8.430;2023-03-03T08:26:05;3.30;99.90
43673;DHT22;41723;49.326;8.430;2023-03-03T08:28:31;3.40;99.90
43673;DHT22;41723;49.326;8.430;2023-03-03T08:30:56;3.50;99.90
43673;DHT22;41723;49.326;8.430;2023-03-03T08:33:22;3.60;99.90
43673;DHT22;41723;49.326;8.430;2023-03-03T08:35:47;3.80;99.90
43673;DHT22;41723;49.326;8.430;2023-03-03T08:38:15;3.90;99.90
43673;DHT22;41723;49.326;8.430;2023-03-03T08:40:41;3.80;99.90
43673;DHT22;41723;49.326;8.430;2023-03-03T08:43:07;3.90;99.90
43673;DHT22;41723;49.326;8.430;2023-03-03T08:45:33;3.90;99.90
43673;DHT22;41723;49.326;8.430;2023-03-03T08:47:58;4.00;99.90
43673;DHT22;41723;49.326;8.430;2023-03-03T08:50:25;4.00;99.90
43673;DHT22;41723;49.326;8.430;2023-03-03T08:52:50;4.00;99.90
43673;DHT22;41723;49.326;8.430;2023-03-03T08:55:16;4.00;99.90
43673;DHT22;41723;49.326;8.430;2023-03-03T08:57:41;4.10;99.90
43673;DHT22;41723;49.326;8.430;2023-03-03T09:00:08;4.10;99.90
43673;DHT22;41723;49.326;8.430;2023-03-03T09:02:35;4.10;99.90
43673;DHT22;41723;49.326;8.430;2023-03-03T09:05:02;4.20;99.90
43673;DHT22;41723;49.326;8.430;2023-03-03T09:07:28;4.40;99.90
43673;DHT22;41723;49.326;8.430;2023-03-03T09:09:53;4.60;99.90
43673;DHT22;41723;49.326;8.430;2023-03-03T09:12:21;4.70;99.90
43673;DHT22;41723;49.326;8.430;2023-03-03T09:14:49;4.70;99.90
43673;DHT22;41723;49.326;8.430;2023-03-03T09:17:23;4.70;99.90
43673;DHT22;41723;49.326;8.430;2023-03-03T09:19:50;4.70;99.90
43673;DHT22;41723;49.326;8.430;2023-03-03T09:24:45;4.80;99.90
43673;DHT22;41723;49.326;8.430;2023-03-03T09:27:14;4.90;99.90
43673;DHT22;41723;49.326;8.430;2023-03-03T09:29:43;4.90;99.90
43673;DHT22;41723;49.326;8.430;2023-03-03T09:34:49;5.00;99.90
43673;DHT22;41723;49.326;8.430;2023-03-03T09:39:42;5.00;99.90
43673;DHT22;41723;49.326;8.430;2023-03-03T09:47:31;5.20;99.90
43673;DHT22;41723;49.326;8.430;2023-03-03T09:55:09;5.50;99.90
43673;DHT22;41723;49.326;8.430;2023-03-03T09:57:46;5.60;99.90
43673;DHT22;41723;49.326;8.430;2023-03-03T10:00:23;5.80;99.90
43673;DHT22;41723;49.326;8.430;2023-03-03T10:21:35;6.00;99.90
43673;DHT22;41723;49.326;8.430;2023-03-03T10:24:08;6.20;99.90
43673;DHT22;41723;49.326;8.430;2023-03-03T10:32:00;6.70;99.90
43673;DHT22;41723;49.326;8.430;2023-03-03T10:37:27;7.00;99.90
43673;DHT22;41723;49.326;8.430;2023-03-03T10:50:53;7.90;98.90
43673;DHT22;41723;49.326;8.430;2023-03-03T11:13:47;7.80;98.10
43673;DHT22;41723;49.326;8.430;2023-03-03T11:21:34;7.70;97.70
43673;DHT22;41723;49.326;8.430;2023-03-03T11:24:18;7.90;97.70
43673;DHT22;41723;49.326;8.430;2023-03-03T11:29:29;8.10;97.70
43673;DHT22;41723;49.326;8.430;2023-03-03T11:31:59;8.00;97.40
43673;DHT22;41723;49.326;8.430;2023-03-03T11:34:49;8.10;97.30
43673;DHT22;41723;49.326;8.430;2023-03-03T11:37:25;8.30;97.10
43673;DHT22;41723;49.326;8.430;2023-03-03T11:39:54;8.30;96.60
43673;DHT22;41723;49.326;8.430;2023-03-03T11:44:48;8.50;96.60
43673;DHT22;41723;49.326;8.430;2023-03-03T11:55:18;8.80;96.40
43673;DHT22;41723;49.326;8.430;2023-03-03T11:57:48;9.10;95.60
43673;DHT22;41723;49.326;8.430;2023-03-03T12:02:45;9.10;95.60
43673;DHT22;41723;49.326;8.430;2023-03-03T12:28:45;9.40;95.20
43673;DHT22;41723;49.326;8.430;2023-03-03T12:33:56;9.50;95.10
43673;DHT22;41723;49.326;8.430;2023-03-03T12:38:51;9.30;94.90
43673;DHT22;41723;49.326;8.430;2023-03-03T12:48:49;9.60;95.00
43673;DHT22;41723;49.326;8.430;2023-03-03T12:56:17;9.30;94.60
43673;DHT22;41723;49.326;8.430;2023-03-03T13:01:36;9.70;94.10
43673;DHT22;41723;49.326;8.430;2023-03-03T13:06:40;9.80;93.80
43673;DHT22;41723;49.326;8.430;2023-03-03T13:09:11;9.80;93.30
43673;DHT22;41723;49.326;8.430;2023-03-03T13:14:14;9.70;93.60
43673;DHT22;41723;49.326;8.430;2023-03-03T13:19:10;10.00;93.50
43673;DHT22;41723;49.326;8.430;2023-03-03T13:21:39;10.10;94.30
43673;DHT22;41723;49.326;8.430;2023-03-03T13:24:11;10.10;93.60
43673;DHT22;41723;49.326;8.430;2023-03-03T13:26:49;9.80;93.80
43673;DHT22;41723;49.326;8.430;2023-03-03T13:29:20;9.90;93.70
43673;DHT22;41723;49.326;8.430;2023-03-03T13:31:51;10.00;93.60
43673;DHT22;41723;49.326;8.430;2023-03-03T13:34:24;9.80;93.70
43673;DHT22;41723;49.326;8.430;2023-03-03T13:36:52;10.00;94.10
43673;DHT22;41723;49.326;8.430;2023-03-03T13:41:51;9.60;93.80
43673;DHT22;41723;49.326;8.430;2023-03-03T13:44:28;9.50;94.20
43673;DHT22;41723;49.326;8.430;2023-03-03T13:49:48;9.60;94.20
43673;DHT22;41723;49.326;8.430;2023-03-03T13:52:21;9.70;94.00
43673;DHT22;41723;49.326;8.430;2023-03-03T13:55:00;9.40;94.40
43673;DHT22;41723;49.326;8.430;2023-03-03T14:00:01;9.60;94.30
43673;DHT22;41723;49.326;8.430;2023-03-03T14:13:30;10.00;94.10
43673;DHT22;41723;49.326;8.430;2023-03-03T14:21:17;10.10;93.70
43673;DHT22;41723;49.326;8.430;2023-03-03T14:23:57;10.20;94.10
43673;DHT22;41723;49.326;8.430;2023-03-03T14:26:24;10.20;93.90
43673;DHT22;41723;49.326;8.430;2023-03-03T14:28:50;10.20;93.20
43673;DHT22;41723;49.326;8.430;2023-03-03T14:31:24;10.10;93.40
43673;DHT22;41723;49.326;8.430;2023-03-03T14:33:58;10.10;93.60
43673;DHT22;41723;49.326;8.430;2023-03-03T14:36:30;10.10;93.60
43673;DHT22;41723;49.326;8.430;2023-03-03T14:38:55;10.20;93.50
43673;DHT22;41723;49.326;8.430;2023-03-03T14:41:22;10.20;93.20
43673;DHT22;41723;49.326;8.430;2023-03-03T14:44:20;10.50;93.00
43673;DHT22;41723;49.326;8.430;2023-03-03T14:46:44;10.30;92.70
43673;DHT22;41723;49.326;8.430;2023-03-03T14:49:27;10.10;93.10
43673;DHT22;41723;49.326;8.430;2023-03-03T14:51:59;10.10;93.20
43673;DHT22;41723;49.326;8.430;2023-03-03T14:54:28;10.20;93.20
43673;DHT22;41723;49.326;8.430;2023-03-03T14:56:59;10.30;92.70
43673;DHT22;41723;49.326;8.430;2023-03-03T14:59:26;10.10;92.70
43673;DHT22;41723;49.326;8.430;2023-03-03T15:04:26;9.80;93.00
43673;DHT22;41723;49.326;8.430;2023-03-03T15:06:52;9.70;92.80
43673;DHT22;41723;49.326;8.430;2023-03-03T15:09:32;9.70;92.80
43673;DHT22;41723;49.326;8.430;2023-03-03T15:12:01;9.60;92.80
43673;DHT22;41723;49.326;8.430;2023-03-03T15:14:29;9.60;92.90
43673;DHT22;41723;49.326;8.430;2023-03-03T15:16:56;9.60;92.80
43673;DHT22;41723;49.326;8.430;2023-03-03T15:27:26;9.60;92.80
43673;DHT22;41723;49.326;8.430;2023-03-03T15:32:44;9.60;93.10
43673;DHT22;41723;49.326;8.430;2023-03-03T15:35:17;9.60;93.00
43673;DHT22;41723;49.326;8.430;2023-03-03T15:55:51;9.50;92.80
43673;DHT22;41723;49.326;8.430;2023-03-03T16:05:53;9.40;93.00
43673;DHT22;41723;49.326;8.430;2023-03-03T16:08:25;9.40;93.00
43673;DHT22;41723;49.326;8.430;2023-03-03T16:11:01;9.30;93.00
43673;DHT22;41723;49.326;8.430;2023-03-03T16:23:43;9.20;92.80
43673;DHT22;41723;49.326;8.430;2023-03-03T16:26:13;9.20;92.90
43673;DHT22;41723;49.326;8.430;2023-03-03T16:31:28;9.10;92.90
43673;DHT22;41723;49.326;8.430;2023-03-03T16:33:59;9.10;92.80
43673;DHT22;41723;49.326;8.430;2023-03-03T16:36:27;9.00;93.00
43673;DHT22;41723;49.326;8.430;2023-03-03T16:39:03;9.00;92.80
43673;DHT22;41723;49.326;8.430;2023-03-03T16:41:43;9.00;92.90
43673;DHT22;41723;49.326;8.430;2023-03-03T16:46:59;8.90;92.90
43673;DHT22;41723;49.326;8.430;2023-03-03T16:52:16;8.80;93.00
43673;DHT22;41723;49.326;8.430;2023-03-03T16:54:46;8.80;92.90
43673;DHT22;41723;49.326;8.430;2023-03-03T16:57:23;8.80;93.10
43673;DHT22;41723;49.326;8.430;2023-03-03T17:00:00;8.70;93.00
43673;DHT22;41723;49.326;8.430;2023-03-03T17:07:47;8.60;93.10
43673;DHT22;41723;49.326;8.430;2023-03-03T17:12:52;8.50;93.10
43673;DHT22;41723;49.326;8.430;2023-03-03T17:25:45;8.30;93.10
43673;DHT22;41723;49.326;8.430;2023-03-03T17:30:44;8.20;93.00
43673;DHT22;41723;49.326;8.430;2023-03-03T17:33:28;8.20;93.00
43673;DHT22;41723;49.326;8.430;2023-03-03T17:41:30;8.10;93.20
43673;DHT22;41723;49.326;8.430;2023-03-03T17:46:55;8.10;93.30
43673;DHT22;41723;49.326;8.430;2023-03-03T17:49:30;8.10;93.40
43673;DHT22;41723;49.326;8.430;2023-03-03T17:54:45;7.90;93.70
43673;DHT22;41723;49.326;8.430;2023-03-03T17:57:19;7.90;93.90
43673;DHT22;41723;49.326;8.430;2023-03-03T17:59:59;7.80;93.90
43673;DHT22;41723;49.326;8.430;2023-03-03T18:02:40;7.80;94.10
43673;DHT22;41723;49.326;8.430;2023-03-03T18:22:53;7.50;95.10
43673;DHT22;41723;49.326;8.430;2023-03-03T18:30:28;7.40;95.40
43673;DHT22;41723;49.326;8.430;2023-03-03T18:38:17;7.30;95.60
43673;DHT22;41723;49.326;8.430;2023-03-03T18:40:52;7.50;95.70
43673;DHT22;41723;49.326;8.430;2023-03-03T18:46:04;7.40;95.80
43673;DHT22;41723;49.326;8.430;2023-03-03T18:51:11;7.20;95.90
43673;DHT22;41723;49.326;8.430;2023-03-03T18:53:36;7.20;95.90
43673;DHT22;41723;49.326;8.430;2023-03-03T18:56:03;7.20;95.80
43673;DHT22;41723;49.326;8.430;2023-03-03T18:58:37;7.20;96.10
43673;DHT22;41723;49.326;8.430;2023-03-03T19:06:00;7.20;95.90
43673;DHT22;41723;49.326;8.430;2023-03-03T19:08:28;7.10;96.00
43673;DHT22;41723;49.326;8.430;2023-03-03T19:15:57;7.00;96.00
43673;DHT22;41723;49.326;8.430;2023-03-03T19:18:24;7.00;95.80
43673;DHT22;41723;49.326;8.430;2023-03-03T19:20:56;6.90;96.00
43673;DHT22;41723;49.326;8.430;2023-03-03T19:31:20;6.90;96.50
43673;DHT22;41723;49.326;8.430;2023-03-03T19:47:03;6.30;97.00
43673;DHT22;41723;49.326;8.430;2023-03-03T19:56:55;6.00;97.40
43673;DHT22;41723;49.326;8.430;2023-03-03T20:02:02;5.90;97.70
43673;DHT22;41723;49.326;8.430;2023-03-03T20:07:33;5.80;98.20
43673;DHT22;41723;49.326;8.430;2023-03-03T20:10:11;5.70;98.50
43673;DHT22;41723;49.326;8.430;2023-03-03T20:31:45;5.30;99.90
43673;DHT22;41723;49.326;8.430;2023-03-03T20:39:10;5.20;99.90
43673;DHT22;41723;49.326;8.430;2023-03-03T20:41:59;5.20;99.90
43673;DHT22;41723;49.326;8.430;2023-03-03T20:44:37;5.20;99.90
43673;DHT22;41723;49.326;8.430;2023-03-03T20:49:49;5.10;99.90
43673;DHT22;41723;49.326;8.430;2023-03-03T21:00:03;4.90;99.90
43673;DHT22;41723;49.326;8.430;2023-03-03T21:05:14;4.80;99.90
43673;DHT22;41723;49.326;8.430;2023-03-03T21:07:57;4.80;99.90
43673;DHT22;41723;49.326;8.430;2023-03-03T21:10:30;4.80;99.90
43673;DHT22;41723;49.326;8.430;2023-03-03T21:12:57;4.80;99.90
43673;DHT22;41723;49.326;8.430;2023-03-03T21:15:25;4.70;99.90
43673;DHT22;41723;49.326;8.430;2023-03-03T21:17:51;4.60;99.90
43673;DHT22;41723;49.326;8.430;2023-03-03T21:20:27;4.60;99.90
43673;DHT22;41723;49.326;8.430;2023-03-03T21:22:57;4.50;99.90
43673;DHT22;41723;49.326;8.430;2023-03-03T21:36:09;4.30;99.90
43673;DHT22;41723;49.326;8.430;2023-03-03T21:38:36;4.30;99.90
43673;DHT22;41723;49.326;8.430;2023-03-03T21:41:04;4.30;99.90
43673;DHT22;41723;49.326;8.430;2023-03-03T21:43:36;4.30;99.90
43673;DHT22;41723;49.326;8.430;2023-03-03T21:46:08;4.20;99.90
43673;DHT22;41723;49.326;8.430;2023-03-03T21:48:41;4.20;99.90
43673;DHT22;41723;49.326;8.430;2023-03-03T21:51:07;4.10;99.90
43673;DHT22;41723;49.326;8.430;2023-03-03T21:53:34;4.20;99.90
43673;DHT22;41723;49.326;8.430;2023-03-03T21:55:59;4.10;99.90
43673;DHT22;41723;49.326;8.430;2023-03-03T21:58:25;4.10;99.90
43673;DHT22;41723;49.326;8.430;2023-03-03T22:00:51;4.10;99.90
43673;DHT22;41723;49.326;8.430;2023-03-03T22:03:16;4.00;99.90
43673;DHT22;41723;49.326;8.430;2023-03-03T22:05:44;3.90;99.90
43673;DHT22;41723;49.326;8.430;2023-03-03T22:08:10;3.90;99.90
43673;DHT22;41723;49.326;8.430;2023-03-03T22:10:42;3.80;99.90
43673;DHT22;41723;49.326;8.430;2023-03-03T22:13:09;3.80;99.90
43673;DHT22;41723;49.326;8.430;2023-03-03T22:15:36;3.80;99.90
43673;DHT22;41723;49.326;8.430;2023-03-03T22:18:01;3.70;99.90
43673;DHT22;41723;49.326;8.430;2023-03-03T22:20:27;3.70;99.90
43673;DHT22;41723;49.326;8.430;2023-03-03T22:22:52;3.70;99.90
43673;DHT22;41723;49.326;8.430;2023-03-03T22:25:18;3.60;99.90
43673;DHT22;41723;49.326;8.430;2023-03-03T22:27:44;3.60;99.90
43673;DHT22;41723;49.326;8.430;2023-03-03T22:30:10;3.60;99.90
43673;DHT22;41723;49.326;8.430;2023-03-03T22:32:35;3.50;99.90
43673;DHT22;41723;49.326;8.430;2023-03-03T22:35:01;3.50;99.90
43673;DHT22;41723;49.326;8.430;2023-03-03T22:37:27;3.40;99.90
43673;DHT22;41723;49.326;8.430;2023-03-03T22:39:52;3.50;99.90
43673;DHT22;41723;49.326;8.430;2023-03-03T22:42:18;3.50;99.90
43673;DHT22;41723;49.326;8.430;2023-03-03T22:44:43;3.40;99.90
43673;DHT22;41723;49.326;8.430;2023-03-03T22:47:09;3.40;99.90
43673;DHT22;41723;49.326;8.430;2023-03-03T22:49:35;3.40;99.90
43673;DHT22;41723;49.326;8.430;2023-03-03T22:52:00;3.40;99.90
43673;DHT22;41723;49.326;8.430;2023-03-03T22:54:26;3.40;99.90
43673;DHT22;41723;49.326;8.430;2023-03-03T22:56:52;3.30;99.90
43673;DHT22;41723;49.326;8.430;2023-03-03T22:59:18;3.30;99.90
43673;DHT22;41723;49.326;8.430;2023-03-03T23:01:43;3.20;99.90
43673;DHT22;41723;49.326;8.430;2023-03-03T23:04:09;3.20;99.90